Time;durP1;ratioP1;P1;durP2;ratioP2;P2;SDS_P1;SDS_P2;PMS_P1;PMS_P2;Temp;Humidity;BMP_temperature;BMP_pressure;BME280_temperature;BME280_humidity;BME280_pressure;Samples;Min_cycle;Max_cycle;Signal;HPM_P1;HPM_P2
2023/12/25 00:02:01;;;;;;;3.30;0.50;;;;;;;10.96;100.00;98416.31;5045634;28;20065;-77
2023/12/25 00:04:27;;;;;;;4.22;1.00;;;;;;;10.97;100.00;98419.84;5051637;28;20049;-77
2023/12/25 00:06:52;;;;;;;3.03;0.93;;;;;;;10.88;100.00;98407.59;5057635;28;20085;-79
2023/12/25 00:09:18;;;;;;;1.75;0.50;;;;;;;10.94;100.00;98428.41;5036936;28;20048;-78
2023/12/25 00:11:44;;;;;;;1.40;0.40;;;;;;;10.96;100.00;98421.72;5036778;28;20032;-80
2023/12/25 00:14:09;;;;;;;4.72;0.70;;;;;;;10.89;100.00;98393.84;5045582;28;20047;-78
2023/12/25 00:16:34;;;;;;;5.13;0.70;;;;;;;10.88;100.00;98424.69;5052191;28;22350;-78
2023/12/25 00:19:00;;;;;;;2.90;0.43;;;;;;;10.92;100.00;98404.22;5043926;28;20036;-79
2023/12/25 00:21:26;;;;;;;3.30;0.47;;;;;;;10.84;100.00;98404.47;5033494;28;20519;-77
2023/12/25 00:23:51;;;;;;;2.55;0.60;;;;;;;10.83;100.00;98407.44;5052730;28;20511;-77
2023/12/25 00:26:17;;;;;;;3.67;0.68;;;;;;;10.85;100.00;98402.63;5037605;28;20388;-81
2023/12/25 00:28:42;;;;;;;2.28;0.55;;;;;;;10.85;100.00;98408.88;5053806;28;20031;-78
2023/12/25 00:31:07;;;;;;;3.35;0.60;;;;;;;10.81;100.00;98409.50;5053204;28;20028;-77
2023/12/25 00:33:33;;;;;;;1.77;0.50;;;;;;;10.80;100.00;98415.97;5055496;28;20476;-77
2023/12/25 00:35:58;;;;;;;4.68;0.70;;;;;;;10.73;100.00;98408.69;5053516;28;20056;-77
2023/12/25 00:38:23;;;;;;;0.55;0.20;;;;;;;10.78;100.00;98431.59;5053292;28;20017;-77
2023/12/25 00:40:49;;;;;;;2.65;0.40;;;;;;;10.73;100.00;98405.16;5067535;28;20044;-78
2023/12/25 00:43:14;;;;;;;4.38;0.40;;;;;;;10.85;100.00;98402.63;5050202;28;20105;-77
2023/12/25 00:45:39;;;;;;;1.02;0.40;;;;;;;10.80;100.00;98416.81;5042766;28;20025;-78
2023/12/25 00:48:05;;;;;;;2.03;0.40;;;;;;;10.62;100.00;98390.44;5035107;28;20021;-80
2023/12/25 00:50:30;;;;;;;1.92;0.50;;;;;;;10.74;100.00;98428.47;5051557;28;20108;-78
2023/12/25 00:52:55;;;;;;;10.15;0.90;;;;;;;10.63;100.00;98400.19;5045685;28;20555;-78
2023/12/25 00:55:21;;;;;;;1.25;0.40;;;;;;;10.63;100.00;98399.38;5041925;28;20499;-79
2023/12/25 00:57:46;;;;;;;1.27;0.50;;;;;;;10.60;100.00;98394.41;5052861;28;20056;-78
2023/12/25 01:00:12;;;;;;;2.30;0.60;;;;;;;10.58;100.00;98396.47;5035158;28;20122;-78
2023/12/25 01:02:37;;;;;;;1.70;0.50;;;;;;;10.58;100.00;98418.94;5045820;28;20040;-77
2023/12/25 01:05:03;;;;;;;1.98;0.50;;;;;;;10.57;100.00;98400.25;5043969;28;20060;-81
2023/12/25 01:07:29;;;;;;;0.98;0.30;;;;;;;10.57;100.00;98409.19;5066156;28;20029;-81
2023/12/25 01:09:54;;;;;;;1.95;0.32;;;;;;;10.54;100.00;98420.44;5076604;28;20029;-77
2023/12/25 01:12:20;;;;;;;4.57;0.70;;;;;;;10.55;100.00;98416.66;5065816;28;20025;-79
2023/12/25 01:14:46;;;;;;;1.88;0.32;;;;;;;10.59;100.00;98431.44;5061470;28;20025;-79
2023/12/25 01:17:11;;;;;;;2.78;0.73;;;;;;;10.51;100.00;98426.25;5044541;28;20021;-78
2023/12/25 01:19:36;;;;;;;1.05;0.60;;;;;;;10.43;100.00;98415.69;5055475;28;20039;-77
2023/12/25 01:22:02;;;;;;;1.88;0.55;;;;;;;10.59;100.00;98444.97;5053897;28;20029;-77
2023/12/25 01:24:27;;;;;;;3.20;0.47;;;;;;;10.40;100.00;98405.25;5055376;28;20021;-77
2023/12/25 01:26:52;;;;;;;1.38;0.50;;;;;;;10.48;100.00;98429.41;5071982;28;20025;-78
2023/12/25 01:29:18;;;;;;;5.82;0.70;;;;;;;10.46;100.00;98426.06;5065576;28;20365;-78
2023/12/25 01:31:43;;;;;;;1.50;0.38;;;;;;;10.34;100.00;98415.06;5063741;28;20061;-79
2023/12/25 01:34:08;;;;;;;3.08;0.43;;;;;;;10.50;100.00;98438.94;5054691;28;20027;-78
2023/12/25 01:36:35;;;;;;;1.15;0.47;;;;;;;10.48;100.00;98427.53;5052862;28;20427;-79
2023/12/25 01:39:01;;;;;;;1.58;0.30;;;;;;;10.47;100.00;98433.13;5047830;28;20025;-78
2023/12/25 01:41:26;;;;;;;2.03;0.40;;;;;;;10.39;100.00;98415.25;5057597;28;20075;-78
2023/12/25 01:43:51;;;;;;;3.97;0.45;;;;;;;10.44;100.00;98428.16;5060274;28;20048;-77
2023/12/25 01:46:17;;;;;;;0.75;0.30;;;;;;;10.45;100.00;98424.38;5063854;28;20029;-77
2023/12/25 01:48:43;;;;;;;1.35;0.45;;;;;;;10.47;100.00;98425.84;5052584;28;20381;-78
2023/12/25 01:51:09;;;;;;;3.60;0.40;;;;;;;10.44;100.00;98411.91;5055932;28;20442;-78
2023/12/25 01:53:35;;;;;;;1.65;0.70;;;;;;;10.36;100.00;98409.44;5055680;28;20017;-78
2023/12/25 01:56:01;;;;;;;5.32;0.50;;;;;;;10.35;100.00;98405.06;5053065;28;20392;-78
2023/12/25 01:58:27;;;;;;;1.73;0.40;;;;;;;10.46;100.00;98424.19;5059103;28;20083;-78
2023/12/25 02:00:52;;;;;;;1.30;0.60;;;;;;;10.39;100.00;98417.97;5053620;28;20431;-78
2023/12/25 02:03:17;;;;;;;2.75;0.82;;;;;;;10.29;100.00;98418.38;5046073;28;20025;-78
2023/12/25 02:05:44;;;;;;;2.17;0.45;;;;;;;10.34;100.00;98422.34;5056019;28;20037;-78
2023/12/25 02:08:13;;;;;;;3.10;0.60;;;;;;;10.34;100.00;98425.03;5054310;28;20074;-78
2023/12/25 02:10:39;;;;;;;0.82;0.40;;;;;;;10.31;100.00;98424.41;5037832;28;20396;-77
2023/12/25 02:13:05;;;;;;;2.53;0.50;;;;;;;10.26;100.00;98437.72;5052240;28;20391;-78
2023/12/25 02:15:30;;;;;;;0.68;0.40;;;;;;;10.26;100.00;98440.41;5047428;28;20013;-77
2023/12/25 02:17:56;;;;;;;1.20;0.40;;;;;;;10.27;100.00;98461.06;5041758;28;20032;-77
2023/12/25 02:20:23;;;;;;;0.95;0.43;;;;;;;10.28;100.00;98451.06;5060197;28;20025;-77
2023/12/25 02:22:49;;;;;;;1.05;0.35;;;;;;;10.30;100.00;98479.56;5032792;28;20032;-79
2023/12/25 02:25:30;;;;;;;1.20;0.40;;;;;;;10.12;100.00;98451.47;5055371;28;20032;-78
2023/12/25 02:27:55;;;;;;;1.38;0.45;;;;;;;10.22;100.00;98441.88;5044739;28;20021;-77
2023/12/25 02:30:20;;;;;;;1.50;0.60;;;;;;;10.35;100.00;98468.13;5051102;28;20029;-78
2023/12/25 02:32:46;;;;;;;1.25;0.43;;;;;;;10.27;100.00;98460.16;5042164;28;20032;-77
2023/12/25 02:35:12;;;;;;;0.70;0.40;;;;;;;10.28;100.00;98468.09;5054029;28;20349;-77
2023/12/25 02:37:38;;;;;;;3.67;0.50;;;;;;;10.21;100.00;98464.53;5070295;28;20064;-77
2023/12/25 02:40:04;;;;;;;1.77;0.50;;;;;;;10.10;100.00;98438.16;5053451;28;20027;-78
2023/12/25 02:42:29;;;;;;;1.35;0.40;;;;;;;10.13;100.00;98436.91;5053862;28;20107;-78
2023/12/25 02:44:54;;;;;;;2.88;0.40;;;;;;;10.15;100.00;98467.25;5051437;28;20577;-77
2023/12/25 02:47:20;;;;;;;2.03;0.30;;;;;;;10.04;100.00;98439.00;5053165;28;20082;-77
2023/12/25 02:49:45;;;;;;;0.55;0.30;;;;;;;10.14;100.00;98450.22;5050553;28;20025;-78
2023/12/25 02:52:10;;;;;;;3.97;0.32;;;;;;;10.02;100.00;98438.38;5053709;28;20400;-77
2023/12/25 02:54:36;;;;;;;2.05;0.43;;;;;;;10.10;100.00;98448.97;5055194;28;20035;-77
2023/12/25 02:57:01;;;;;;;0.88;0.22;;;;;;;10.02;100.00;98444.59;5054366;28;20112;-79
2023/12/25 02:59:26;;;;;;;3.55;0.40;;;;;;;10.02;100.00;98449.19;5069366;28;20480;-77
2023/12/25 03:01:52;;;;;;;1.65;0.50;;;;;;;9.86;100.00;98426.94;5056328;28;20032;-77
2023/12/25 03:04:17;;;;;;;1.05;0.32;;;;;;;9.86;100.00;98420.72;5047870;28;20040;-78
2023/12/25 03:06:42;;;;;;;5.80;0.50;;;;;;;9.86;100.00;98436.91;5065547;28;20358;-77
2023/12/25 03:09:07;;;;;;;1.33;0.65;;;;;;;9.92;100.00;98443.34;5036648;28;20028;-78
2023/12/25 03:11:33;;;;;;;1.65;0.38;;;;;;;9.88;100.00;98438.38;5041267;28;20029;-78
2023/12/25 03:13:59;;;;;;;6.93;0.80;;;;;;;9.93;100.00;98431.50;5050838;28;20052;-78
2023/12/25 03:16:25;;;;;;;1.95;0.50;;;;;;;9.94;100.00;98435.88;5052567;28;20028;-78
2023/12/25 03:18:50;;;;;;;1.33;0.32;;;;;;;9.86;100.00;98435.03;5053021;28;20072;-77
2023/12/25 03:21:16;;;;;;;2.60;0.45;;;;;;;9.92;100.00;98435.25;5043784;28;20024;-78
2023/12/25 03:23:41;;;;;;;1.10;0.32;;;;;;;9.80;100.00;98416.13;5035592;28;20503;-79
2023/12/25 03:26:07;;;;;;;4.00;0.60;;;;;;;9.89;100.00;98425.69;5050282;28;20041;-78
2023/12/25 03:28:32;;;;;;;0.85;0.40;;;;;;;9.90;100.00;98432.75;5031222;28;20540;-78
2023/12/25 03:30:57;;;;;;;0.90;0.30;;;;;;;9.85;100.00;98424.44;5059218;28;20028;-81
2023/12/25 03:33:23;;;;;;;2.00;0.30;;;;;;;9.90;100.00;98440.03;5068410;28;20025;-77
2023/12/25 03:35:48;;;;;;;3.88;0.40;;;;;;;9.91;100.00;98436.31;5053039;28;20054;-77
2023/12/25 03:38:13;;;;;;;1.38;0.38;;;;;;;9.83;100.00;98427.34;5043500;28;20033;-77
2023/12/25 03:40:42;;;;;;;2.28;0.32;;;;;;;9.92;100.00;98454.16;5050800;28;20503;-78
2023/12/25 03:43:07;;;;;;;1.27;0.40;;;;;;;9.89;100.00;98441.91;5053975;28;20025;-78
2023/12/25 03:45:32;;;;;;;2.17;0.50;;;;;;;9.90;100.00;98448.13;5053352;28;21704;-78
2023/12/25 03:47:57;;;;;;;2.70;0.30;;;;;;;9.80;100.00;98435.88;5047650;28;20029;-77
2023/12/25 03:50:23;;;;;;;1.33;0.60;;;;;;;9.86;100.00;98445.84;5054496;28;20025;-78
2023/12/25 03:52:48;;;;;;;2.15;0.47;;;;;;;9.79;100.00;98442.31;5041382;28;20047;-77
2023/12/25 03:55:14;;;;;;;2.03;0.50;;;;;;;9.93;100.00;98442.31;5040619;28;20112;-76
2023/12/25 03:57:39;;;;;;;1.33;0.60;;;;;;;9.90;100.00;98448.13;5053485;28;20025;-77
2023/12/25 04:00:05;;;;;;;0.65;0.30;;;;;;;9.91;100.00;98436.31;5051959;28;20036;-79
2023/12/25 04:02:31;;;;;;;3.63;0.40;;;;;;;9.98;100.00;98451.47;5043791;28;20025;-80
2023/12/25 04:04:56;;;;;;;3.58;0.50;;;;;;;9.93;100.00;98436.91;5034316;28;20535;-77
2023/12/25 04:07:21;;;;;;;0.15;0.13;;;;;;;9.94;100.00;98439.41;5045252;28;20031;-77
2023/12/25 04:09:46;;;;;;;1.90;0.40;;;;;;;9.92;100.00;98438.78;5059549;28;20116;-77
2023/12/25 04:12:12;;;;;;;0.77;0.30;;;;;;;9.90;100.00;98438.16;5053897;28;20029;-78
2023/12/25 04:14:40;;;;;;;2.38;0.55;;;;;;;9.93;100.00;98440.47;5053570;28;20468;-78
2023/12/25 04:17:05;;;;;;;1.42;0.45;;;;;;;9.93;100.00;98443.16;5049212;28;20037;-77
2023/12/25 04:19:32;;;;;;;2.53;0.38;;;;;;;9.92;100.00;98405.53;5049253;28;20021;-78
2023/12/25 04:21:57;;;;;;;1.45;0.40;;;;;;;9.97;100.00;98438.16;5050591;28;20036;-78
2023/12/25 04:24:22;;;;;;;0.50;0.20;;;;;;;9.94;100.00;98443.97;5042166;28;20028;-77
2023/12/25 04:26:47;;;;;;;1.88;0.35;;;;;;;9.92;100.00;98436.06;5045627;28;20029;-77
2023/12/25 04:29:13;;;;;;;2.38;0.50;;;;;;;9.97;100.00;98444.38;5049590;28;20028;-78
2023/12/25 04:31:38;;;;;;;2.72;0.65;;;;;;;9.85;100.00;98436.09;5050641;28;20040;-77
2023/12/25 04:34:03;;;;;;;2.70;0.40;;;;;;;10.04;100.00;98445.22;5046239;28;20033;-77
2023/12/25 04:36:29;;;;;;;0.65;0.38;;;;;;;10.00;100.00;98446.66;5043826;28;20024;-79
2023/12/25 04:38:54;;;;;;;2.58;0.30;;;;;;;10.00;100.00;98429.63;5051014;28;20094;-78
2023/12/25 04:41:23;;;;;;;1.48;0.20;;;;;;;10.09;100.00;98450.00;5028806;28;20021;-77
2023/12/25 04:43:50;;;;;;;1.70;0.32;;;;;;;10.01;100.00;98439.41;5051761;28;20047;-77
2023/12/25 04:46:16;;;;;;;1.30;0.38;;;;;;;10.10;100.00;98454.38;5041603;28;20024;-77
2023/12/25 04:48:41;;;;;;;1.70;0.60;;;;;;;9.92;100.00;98435.25;5046332;28;20024;-78
2023/12/25 04:51:08;;;;;;;2.22;0.30;;;;;;;9.92;100.00;98432.53;5051636;28;20037;-77
2023/12/25 04:53:34;;;;;;;0.60;0.20;;;;;;;9.92;100.00;98429.84;5045204;28;20079;-79
2023/12/25 04:56:00;;;;;;;3.03;0.30;;;;;;;9.92;100.00;98446.88;5047239;28;20545;-77
2023/12/25 04:58:25;;;;;;;0.82;0.20;;;;;;;9.93;100.00;98451.25;5033451;28;20021;-80
2023/12/25 05:00:50;;;;;;;0.85;0.32;;;;;;;9.97;100.00;98452.50;5062963;28;20029;-77
2023/12/25 05:03:16;;;;;;;2.78;0.40;;;;;;;9.94;100.00;98452.09;5049963;28;20033;-77
2023/12/25 05:05:41;;;;;;;0.82;0.40;;;;;;;9.88;100.00;98441.06;5049420;28;20025;-77
2023/12/25 05:08:06;;;;;;;1.67;0.35;;;;;;;9.95;100.00;98446.47;5048131;28;20040;-78
2023/12/25 05:10:32;;;;;;;1.33;0.47;;;;;;;9.99;100.00;98463.94;5051312;28;20524;-77
2023/12/25 05:12:57;;;;;;;1.35;0.40;;;;;;;9.91;100.00;98452.50;5053223;28;20032;-77
2023/12/25 05:15:23;;;;;;;1.23;0.35;;;;;;;9.86;100.00;98443.16;5043946;28;20044;-77
2023/12/25 05:17:48;;;;;;;0.55;0.38;;;;;;;9.92;100.00;98448.75;5049357;28;20123;-77
2023/12/25 05:20:14;;;;;;;2.22;0.30;;;;;;;9.97;100.00;98451.66;5050784;28;20036;-77
2023/12/25 05:22:39;;;;;;;0.40;0.20;;;;;;;9.78;100.00;98424.44;5066532;28;20112;-77
2023/12/25 05:25:05;;;;;;;1.30;0.35;;;;;;;9.92;100.00;98444.19;5067115;28;20021;-79
2023/12/25 05:27:30;;;;;;;1.15;0.40;;;;;;;9.80;100.00;98437.75;5028356;28;20021;-77
2023/12/25 05:29:56;;;;;;;0.60;0.28;;;;;;;9.76;100.00;98426.50;5062414;28;20062;-76
2023/12/25 05:32:21;;;;;;;1.05;0.40;;;;;;;9.75;100.00;98427.56;5050199;28;20052;-78
2023/12/25 05:34:46;;;;;;;0.43;0.25;;;;;;;9.68;100.00;98418.63;5051143;28;20021;-77
2023/12/25 05:37:12;;;;;;;3.53;0.40;;;;;;;9.65;100.00;98408.22;5038408;28;20060;-77
2023/12/25 05:39:37;;;;;;;0.70;0.30;;;;;;;9.45;100.00;98375.81;5053888;28;20025;-77
2023/12/25 05:42:02;;;;;;;1.70;0.80;;;;;;;9.60;100.00;98413.41;5059402;28;20503;-77
2023/12/25 05:44:28;;;;;;;2.20;0.55;;;;;;;9.67;100.00;98435.88;5059622;28;20415;-77
2023/12/25 05:46:53;;;;;;;0.52;0.30;;;;;;;9.61;100.00;98428.56;5049541;28;20040;-79
2023/12/25 05:49:18;;;;;;;0.22;0.15;;;;;;;9.70;100.00;98434.63;5049430;28;20025;-80
2023/12/25 05:51:43;;;;;;;0.95;0.40;;;;;;;9.66;100.00;98435.00;5059821;28;20036;-77
2023/12/25 05:54:09;;;;;;;1.02;0.30;;;;;;;9.60;100.00;98411.53;5046456;28;20036;-77
2023/12/25 05:56:34;;;;;;;1.58;0.40;;;;;;;9.61;100.00;98428.56;5061848;28;20518;-77
2023/12/25 05:58:59;;;;;;;0.50;0.20;;;;;;;9.68;100.00;98434.81;5051978;28;20036;-76
2023/12/25 06:01:25;;;;;;;1.75;0.40;;;;;;;9.74;100.00;98435.88;5053849;28;20025;-78
2023/12/25 06:03:50;;;;;;;1.25;0.40;;;;;;;9.71;100.00;98450.63;5045932;28;20124;-80
2023/12/25 06:06:16;;;;;;;1.00;0.25;;;;;;;9.67;100.00;98441.28;5038172;28;20060;-78
2023/12/25 06:08:41;;;;;;;0.85;0.30;;;;;;;9.68;100.00;98451.03;5037857;28;20026;-77
2023/12/25 06:11:06;;;;;;;0.20;0.15;;;;;;;9.55;100.00;98446.44;5031037;28;20053;-77
2023/12/25 06:13:32;;;;;;;1.40;0.45;;;;;;;9.58;100.00;98434.41;5052144;28;20484;-79
2023/12/25 06:15:57;;;;;;;1.08;0.30;;;;;;;9.57;100.00;98449.78;5049467;28;20090;-79
2023/12/25 06:18:22;;;;;;;0.85;0.30;;;;;;;9.65;100.00;98436.06;5043808;28;20428;-78
2023/12/25 06:20:48;;;;;;;0.85;0.32;;;;;;;9.61;100.00;98452.88;5054145;28;20039;-77
2023/12/25 06:23:13;;;;;;;1.90;0.47;;;;;;;9.71;100.00;98458.72;5029986;28;20064;-80
2023/12/25 06:25:38;;;;;;;0.47;0.30;;;;;;;9.57;100.00;98455.19;5053280;28;20036;-82
2023/12/25 06:28:04;;;;;;;0.65;0.22;;;;;;;9.57;100.00;98470.56;5053914;28;20175;-84
2023/12/25 06:30:29;;;;;;;0.95;0.20;;;;;;;9.47;100.00;98432.31;5039782;28;20115;-82
2023/12/25 06:32:54;;;;;;;1.15;0.30;;;;;;;9.53;100.00;98463.88;5050164;28;20534;-77
2023/12/25 06:35:20;;;;;;;1.65;0.40;;;;;;;9.56;100.00;98458.06;5051768;28;20027;-77
2023/12/25 06:37:45;;;;;;;1.83;0.25;;;;;;;9.62;100.00;98473.47;5053397;28;20159;-79
2023/12/25 06:40:11;;;;;;;0.40;0.20;;;;;;;9.56;100.00;98453.53;5048236;28;20066;-78
2023/12/25 06:42:36;;;;;;;0.30;0.13;;;;;;;9.42;100.00;98444.53;5041080;28;20033;-78
2023/12/25 06:45:02;;;;;;;1.75;0.35;;;;;;;9.48;100.00;98466.38;5036276;28;20493;-82
2023/12/25 06:47:27;;;;;;;0.57;0.28;;;;;;;9.57;100.00;98471.38;5049900;28;20029;-81
2023/12/25 06:49:53;;;;;;;0.68;0.30;;;;;;;9.60;100.00;98480.94;5045185;28;20030;-77
2023/12/25 06:52:19;;;;;;;0.32;0.20;;;;;;;9.51;100.00;98472.22;5045275;28;20041;-77
2023/12/25 06:54:44;;;;;;;1.75;0.30;;;;;;;9.58;100.00;98480.31;5034933;28;20113;-77
2023/12/25 06:57:11;;;;;;;2.72;0.30;;;;;;;9.61;100.00;98475.31;5034465;28;20113;-78
2023/12/25 06:59:37;;;;;;;0.70;0.30;;;;;;;9.68;100.00;98504.22;5042072;28;20484;-78
2023/12/25 07:02:02;;;;;;;0.98;0.40;;;;;;;9.58;100.00;98488.41;5057542;28;20108;-78
2023/12/25 07:04:27;;;;;;;2.70;0.40;;;;;;;9.61;100.00;98483.41;5053899;28;20025;-78
2023/12/25 07:06:52;;;;;;;0.43;0.30;;;;;;;9.58;100.00;98485.72;5056451;28;20043;-77
2023/12/25 07:09:19;;;;;;;0.93;0.55;;;;;;;9.60;100.00;98494.44;5044731;28;20044;-79
2023/12/25 07:11:44;;;;;;;1.35;0.35;;;;;;;9.54;100.00;98469.09;5048529;28;20025;-83
2023/12/25 07:14:09;;;;;;;2.15;0.35;;;;;;;9.55;100.00;98468.03;5050093;28;20106;-78
2023/12/25 07:16:36;;;;;;;1.33;0.30;;;;;;;9.59;100.00;98472.00;5035913;28;20021;-82
2023/12/25 07:19:01;;;;;;;1.23;0.20;;;;;;;9.58;100.00;98472.19;5056871;28;20036;-79
2023/12/25 07:21:26;;;;;;;1.65;0.40;;;;;;;9.54;100.00;98476.38;5054490;28;20219;-79
2023/12/25 07:23:52;;;;;;;2.60;0.38;;;;;;;9.57;100.00;98481.34;5053879;28;20116;-78
2023/12/25 07:26:18;;;;;;;1.75;0.20;;;;;;;9.72;100.00;98503.63;5051390;28;20029;-79
2023/12/25 07:28:44;;;;;;;0.38;0.25;;;;;;;9.65;100.00;98489.25;5037943;28;20025;-78
2023/12/25 07:31:09;;;;;;;0.95;0.50;;;;;;;9.63;100.00;98502.13;5050695;28;20033;-76
2023/12/25 07:33:35;;;;;;;1.23;0.70;;;;;;;9.78;100.00;98521.69;5053020;28;20024;-79
2023/12/25 07:36:01;;;;;;;1.48;0.52;;;;;;;9.62;100.00;98505.88;5056399;28;20032;-81
2023/12/25 07:38:26;;;;;;;1.55;0.50;;;;;;;9.82;100.00;98517.56;5035361;28;20670;-79
2023/12/25 07:40:51;;;;;;;1.77;0.60;;;;;;;9.66;100.00;98512.53;5036669;28;20047;-80
2023/12/25 07:43:17;;;;;;;0.95;0.47;;;;;;;9.69;100.00;98511.28;5046075;28;20029;-78
2023/12/25 07:45:42;;;;;;;0.90;0.50;;;;;;;9.71;100.00;98496.53;5056340;28;20481;-80
2023/12/25 07:48:07;;;;;;;1.27;0.60;;;;;;;9.84;100.00;98514.63;5036953;28;20116;-76
2023/12/25 07:50:33;;;;;;;0.65;0.38;;;;;;;9.68;100.00;98477.22;5035468;28;20108;-78
2023/12/25 07:52:58;;;;;;;0.60;0.30;;;;;;;9.88;100.00;98510.50;5048075;28;20032;-77
2023/12/25 07:55:24;;;;;;;1.63;0.50;;;;;;;9.93;100.00;98517.97;5038387;28;20025;-83
2023/12/25 07:57:49;;;;;;;0.35;0.32;;;;;;;10.13;100.00;98529.63;5050019;28;20088;-77
2023/12/25 08:00:15;;;;;;;0.65;0.30;;;;;;;10.12;100.00;98522.56;5034073;28;20085;-76
2023/12/25 08:02:40;;;;;;;0.35;0.28;;;;;;;10.10;100.00;98509.25;5051970;28;20057;-76
2023/12/25 08:05:06;;;;;;;0.60;0.40;;;;;;;10.27;100.00;98530.47;5031919;28;20037;-79
2023/12/25 08:07:31;;;;;;;0.95;0.30;;;;;;;10.21;100.00;98504.25;5044869;28;20053;-77
2023/12/25 08:09:57;;;;;;;1.02;0.20;;;;;;;10.24;100.00;98520.91;5033897;28;20020;-78
2023/12/25 08:12:22;;;;;;;0.60;0.30;;;;;;;10.23;100.00;98540.03;5036532;28;20021;-76
2023/12/25 08:14:47;;;;;;;0.60;0.30;;;;;;;10.22;100.00;98560.84;5030847;28;20020;-77
2023/12/25 08:17:13;;;;;;;1.02;0.35;;;;;;;10.30;100.00;98562.56;5028479;28;20048;-77
2023/12/25 08:19:38;;;;;;;1.45;0.43;;;;;;;10.09;100.00;98541.91;5037253;28;20025;-78
2023/12/25 08:22:04;;;;;;;1.10;0.15;;;;;;;10.21;100.00;98551.06;5047894;28;20029;-79
2023/12/25 08:24:29;;;;;;;0.57;0.20;;;;;;;10.33;100.00;98572.13;5052731;28;20088;-76
2023/12/25 08:26:54;;;;;;;0.85;0.38;;;;;;;10.24;100.00;98558.78;5053853;28;20108;-77
2023/12/25 08:29:19;;;;;;;0.95;0.40;;;;;;;10.23;100.00;98561.69;5040356;28;20078;-77
2023/12/25 08:31:45;;;;;;;0.50;0.20;;;;;;;10.35;100.00;98589.81;5051604;22;20043;-76
2023/12/25 08:34:10;;;;;;;0.30;0.20;;;;;;;10.43;100.00;98584.19;5006761;28;20037;-76
2023/12/25 08:36:35;;;;;;;0.30;0.20;;;;;;;10.46;100.00;98588.34;4989355;28;20452;-75
2023/12/25 08:39:01;;;;;;;0.93;0.45;;;;;;;10.41;100.00;98586.25;4988724;28;20046;-76
2023/12/25 08:41:26;;;;;;;0.73;0.30;;;;;;;10.24;100.00;98564.19;5001695;28;20037;-76
2023/12/25 08:43:51;;;;;;;0.55;0.30;;;;;;;10.28;100.00;98588.97;5028435;28;20447;-76
2023/12/25 08:46:17;;;;;;;0.80;0.45;;;;;;;10.22;100.00;98590.59;5034551;28;20089;-78
2023/12/25 08:48:42;;;;;;;1.13;0.50;;;;;;;10.24;100.00;98596.63;5035533;28;20033;-78
2023/12/25 08:51:08;;;;;;;1.33;0.40;;;;;;;10.36;100.00;98594.16;5035757;28;20094;-77
2023/12/25 08:53:33;;;;;;;0.93;0.40;;;;;;;10.37;100.00;98586.88;5034016;28;20025;-78
2023/12/25 08:56:00;;;;;;;1.17;0.40;;;;;;;10.42;100.00;98587.09;5034262;28;20076;-78
2023/12/25 08:58:26;;;;;;;3.20;0.40;;;;;;;10.39;100.00;98576.69;5032627;28;20014;-77
2023/12/25 09:00:51;;;;;;;0.60;0.28;;;;;;;10.30;100.00;98579.59;5018235;28;20030;-77
2023/12/25 09:03:17;;;;;;;3.22;0.30;;;;;;;10.22;100.00;98571.66;5017860;28;20045;-76
2023/12/25 09:05:43;;;;;;;4.80;0.50;;;;;;;10.22;100.00;98568.97;5039835;28;20045;-75
2023/12/25 09:08:10;;;;;;;0.90;0.30;;;;;;;10.34;100.00;98584.59;5027606;28;20033;-76
2023/12/25 09:10:36;;;;;;;1.60;0.32;;;;;;;10.35;100.00;98597.06;5025566;28;20057;-76
2023/12/25 09:13:02;;;;;;;0.82;0.30;;;;;;;10.45;100.00;98574.00;5013062;28;20037;-78
2023/12/25 09:15:28;;;;;;;1.63;0.45;;;;;;;10.52;100.00;98590.22;5008693;28;20400;-80
2023/12/25 09:17:53;;;;;;;1.48;0.43;;;;;;;10.44;100.00;98582.31;5008298;28;20044;-78
2023/12/25 09:20:18;;;;;;;0.65;0.30;;;;;;;10.60;100.00;98608.94;5002425;28;20508;-80
2023/12/25 09:22:44;;;;;;;0.90;0.30;;;;;;;10.49;100.00;98596.03;5022280;28;20068;-78
2023/12/25 09:25:09;;;;;;;0.45;0.30;;;;;;;10.64;100.00;98598.53;5007944;28;20492;-79
2023/12/25 09:27:35;;;;;;;0.17;0.10;;;;;;;10.45;100.00;98573.13;5016429;28;20131;-80
2023/12/25 09:30:00;;;;;;;0.20;0.20;;;;;;;10.65;100.00;98606.44;5016412;28;20041;-78
2023/12/25 09:32:27;;;;;;;0.47;0.25;;;;;;;10.61;100.00;98599.78;5007096;28;20513;-76
2023/12/25 09:34:52;;;;;;;2.53;0.40;;;;;;;10.71;100.00;98599.34;5004801;28;20479;-78
2023/12/25 09:37:17;;;;;;;1.50;0.40;;;;;;;10.73;100.00;98589.97;5012962;28;20158;-81
2023/12/25 09:39:43;;;;;;;0.63;0.10;;;;;;;10.86;100.00;98599.13;5016612;28;20460;-76
2023/12/25 09:42:10;;;;;;;0.68;0.28;;;;;;;10.84;100.00;98625.56;5013568;28;20034;-78
2023/12/25 09:44:37;;;;;;;0.20;0.20;;;;;;;10.82;100.00;98620.38;5019572;28;20104;-79
2023/12/25 09:47:06;;;;;;;0.60;0.30;;;;;;;10.85;100.00;98608.31;5007944;28;20929;-75
2023/12/25 09:49:34;;;;;;;;;;;;;;;10.88;100.00;98629.53;5016534;28;20026;-76
2023/12/25 09:52:00;;;;;;;0.30;0.20;;;;;;;11.00;100.00;98606.19;5012923;28;19996;-76
2023/12/25 09:54:25;;;;;;;1.27;0.30;;;;;;;11.06;100.00;98596.41;5018465;28;20040;-78
2023/12/25 09:57:30;;;;;;;0.95;0.20;;;;;;;10.99;100.00;98604.53;5022689;28;20021;-87
2023/12/25 09:59:56;;;;;;;0.55;0.20;;;;;;;10.93;100.00;98594.56;5028761;28;20029;-78
2023/12/25 10:02:22;;;;;;;1.42;0.30;;;;;;;11.11;100.00;98575.78;5014997;28;20057;-82
2023/12/25 10:04:49;;;;;;;1.33;0.13;;;;;;;11.26;100.00;98594.47;5016896;28;20432;-80
2023/12/25 10:07:15;;;;;;;0.10;0.10;;;;;;;11.22;100.00;98604.06;5008345;28;20454;-83
2023/12/25 10:09:40;;;;;;;0.70;0.30;;;;;;;11.44;100.00;98599.19;5007672;28;20037;-87
2023/12/25 10:12:06;;;;;;;1.25;0.20;;;;;;;11.50;100.00;98589.38;5014428;28;20049;-82
2023/12/25 10:14:32;;;;;;;1.83;0.30;;;;;;;11.27;100.00;98589.91;5008787;28;20026;-82
2023/12/25 10:16:58;;;;;;;0.63;0.10;;;;;;;11.31;100.00;98594.66;5011847;28;20022;-81
2023/12/25 10:19:24;;;;;;;0.30;0.10;;;;;;;11.02;100.00;98604.09;5015156;28;20052;-77
2023/12/25 10:21:52;;;;;;;0.55;0.25;;;;;;;11.05;100.00;98592.84;5016337;28;20017;-83
2023/12/25 10:24:17;;;;;;;0.38;0.13;;;;;;;11.18;100.00;98600.94;5014020;28;20025;-86
2023/12/25 10:26:44;;;;;;;0.40;0.20;;;;;;;11.19;100.00;98590.97;5010473;28;20022;-79
2023/12/25 10:29:10;;;;;;;0.20;0.20;;;;;;;11.17;100.00;98596.56;5013499;28;20469;-76
2023/12/25 10:31:43;;;;;;;0.35;0.13;;;;;;;11.11;100.00;98597.44;5012241;28;20033;-76
2023/12/25 10:34:09;;;;;;;1.35;0.22;;;;;;;11.11;100.00;98592.03;5014861;28;20517;-79
2023/12/25 10:36:34;;;;;;;0.32;0.30;;;;;;;10.96;100.00;98572.47;5014705;28;20053;-78
2023/12/25 10:39:00;;;;;;;0.28;0.10;;;;;;;11.07;100.00;98577.22;5017191;28;20045;-77
2023/12/25 10:41:28;;;;;;;0.70;0.28;;;;;;;11.17;100.00;98552.44;5014926;28;20485;-78
2023/12/25 10:43:55;;;;;;;0.28;0.10;;;;;;;11.40;100.00;98579.84;5008684;28;20033;-78
2023/12/25 10:46:25;;;;;;;0.20;0.10;;;;;;;11.31;100.00;98578.41;5024430;28;20030;-76
2023/12/25 10:48:53;;;;;;;0.30;0.20;;;;;;;11.74;100.00;98577.00;5014269;28;20022;-84
2023/12/25 10:51:31;;;;;;;0.30;0.17;;;;;;;11.92;100.00;98579.84;5029583;28;20026;-85
2023/12/25 10:54:00;;;;;;;0.00;0.00;;;;;;;11.80;100.00;98576.13;5009856;28;20026;-85
2023/12/25 10:56:27;;;;;;;0.95;0.15;;;;;;;11.73;100.00;98567.19;5016475;28;20025;-85
2023/12/25 10:58:57;;;;;;;0.50;0.10;;;;;;;11.88;100.00;98575.06;5015138;28;20042;-84
2023/12/25 11:01:25;;;;;;;1.80;0.28;;;;;;;12.17;100.00;98589.91;5015143;28;20092;-79
2023/12/25 11:03:53;;;;;;;0.90;0.30;;;;;;;12.07;100.00;98574.09;5009422;28;20026;-77
2023/12/25 11:06:19;;;;;;;0.10;0.00;;;;;;;12.13;100.00;98594.94;5015334;28;20033;-84
2023/12/25 11:08:45;;;;;;;0.38;0.10;;;;;;;11.41;100.00;98597.75;5028657;28;20025;-84
2023/12/25 11:11:13;;;;;;;2.40;0.15;;;;;;;11.81;100.00;98585.91;5020605;28;20509;-83
2023/12/25 11:13:40;;;;;;;1.42;0.20;;;;;;;12.09;100.00;98604.56;5017349;28;20131;-84
2023/12/25 11:16:07;;;;;;;0.25;0.20;;;;;;;11.92;100.00;98582.56;5012765;28;20022;-83
2023/12/25 11:18:36;;;;;;;0.28;0.10;;;;;;;11.98;100.00;98607.97;5014631;28;20093;-81
2023/12/25 11:21:06;;;;;;;0.43;0.22;;;;;;;12.08;100.00;98605.63;5012917;28;20030;-80
2023/12/25 11:23:33;;;;;;;0.73;0.30;;;;;;;11.51;100.00;98591.88;5018200;28;20053;-80